createdAt,value
2018-11-22T03:48:54.947Z,55.10
2018-11-22T03:52:04.483Z,54.90
2018-11-22T03:58:19.215Z,54.90
2018-11-22T04:04:57.066Z,55.00
2018-11-22T04:11:25.063Z,54.90
2018-11-22T04:14:31.982Z,54.90
2018-11-22T04:17:35.360Z,55.10
2018-11-22T04:20:44.447Z,55.30
2018-11-22T04:23:39.929Z,55.30
2018-11-22T04:26:35.615Z,53.00
2018-11-22T04:29:29.957Z,50.50
2018-11-22T04:32:25.827Z,48.90
2018-11-22T04:35:25.652Z,49.30
2018-11-22T04:38:21.868Z,50.20
2018-11-22T04:41:18.026Z,50.60
2018-11-22T04:44:22.497Z,50.20
2018-11-22T04:47:29.550Z,50.10
2018-11-22T04:50:53.995Z,51.10
2018-11-22T04:54:05.301Z,50.80
2018-11-22T04:57:00.120Z,50.80
2018-11-22T04:59:59.686Z,50.90
2018-11-22T05:02:56.916Z,51.30
2018-11-22T05:05:53.672Z,51.00
2018-11-22T05:08:50.248Z,51.60
2018-11-22T05:11:46.694Z,51.80
2018-11-22T05:14:46.452Z,52.20
2018-11-22T05:17:43.148Z,52.40
2018-11-22T05:30:10.903Z,52.70
2018-11-22T06:12:12.129Z,51.70
2018-11-22T06:25:53.415Z,51.40
2018-11-22T06:31:55.346Z,51.70
2018-11-22T06:35:01.708Z,51.40
2018-11-22T06:38:06.938Z,51.40
2018-11-22T06:41:16.508Z,50.40
2018-11-22T06:44:53.287Z,50.40
2018-11-22T07:04:06.261Z,50.00
2018-11-22T07:14:00.831Z,50.90
2018-11-22T07:20:25.739Z,51.10
2018-11-22T07:34:38.870Z,51.00
2018-11-22T07:44:41.121Z,49.50
2018-11-22T08:24:50.304Z,49.90
2018-11-22T08:28:04.273Z,49.80
2018-11-22T08:31:08.654Z,49.60
2018-11-22T08:34:21.252Z,49.40
2018-11-22T08:37:26.704Z,49.30
2018-11-22T08:40:41.326Z,49.30
2018-11-22T08:43:53.158Z,49.10
2018-11-22T08:47:00.452Z,48.90
2018-11-22T08:53:18.989Z,48.80
2018-11-22T09:19:46.265Z,48.10
2018-11-22T09:32:27.260Z,49.00
2018-11-22T09:35:55.984Z,49.40
2018-11-22T09:39:06.541Z,49.30
2018-11-22T09:42:29.574Z,49.40
2018-11-22T09:52:16.785Z,50.20
2018-11-22T09:58:33.798Z,50.40
2018-11-22T10:02:21.542Z,50.50
2018-11-22T10:05:49.858Z,50.80
2018-11-22T10:18:21.603Z,53.20
2018-11-22T10:21:43.714Z,53.10
2018-11-22T10:24:47.933Z,53.20
2018-11-22T10:34:14.889Z,55.60
2018-11-22T10:37:31.217Z,54.90
2018-11-22T10:43:37.691Z,55.50
2018-11-22T10:49:43.994Z,54.80
2018-11-22T10:52:47.669Z,54.80
2018-11-22T10:55:50.188Z,54.40
2018-11-22T10:58:51.845Z,54.10
2018-11-22T11:02:22.733Z,54.10
2018-11-22T11:05:31.286Z,52.30
2018-11-22T11:08:36.512Z,53.90
2018-11-22T11:11:48.069Z,53.70
2018-11-22T11:18:02.828Z,53.10
2018-11-22T11:21:22.894Z,53.30
2018-11-22T11:24:42.920Z,54.10
2018-11-22T11:34:18.187Z,53.60
2018-11-22T11:37:35.693Z,54.60
2018-11-22T11:40:38.257Z,55.50
2018-11-22T11:43:36.719Z,55.90
2018-11-22T11:46:39.408Z,57.40
2018-11-22T11:49:42.034Z,57.40
2018-11-22T11:52:38.344Z,57.90
2018-11-22T11:55:38.643Z,56.90
2018-11-22T11:58:37.113Z,56.90
2018-11-22T12:01:34.444Z,55.20
2018-11-22T12:04:33.942Z,54.40
2018-11-22T12:07:32.051Z,53.30
2018-11-22T12:10:31.610Z,53.10
2018-11-22T12:13:30.840Z,52.20
2018-11-22T12:16:31.866Z,53.30
2018-11-22T12:19:28.482Z,53.60
2018-11-22T12:22:24.698Z,53.50
2018-11-22T12:25:27.665Z,52.50
2018-11-22T12:28:23.790Z,53.40
2018-11-22T12:31:20.684Z,52.50
2018-11-22T12:34:25.982Z,54.60
2018-11-22T12:37:43.243Z,53.80
2018-11-22T12:40:38.118Z,55.00
2018-11-22T12:43:34.068Z,54.00
2018-11-22T12:46:31.240Z,52.90
2018-11-22T12:49:27.179Z,53.00
2018-11-22T12:52:23.760Z,53.20
2018-11-22T12:55:22.774Z,52.60
2018-11-22T12:58:19.407Z,53.30
2018-11-22T13:01:15.629Z,52.30
2018-11-22T13:04:11.004Z,52.30
2018-11-22T13:07:07.340Z,52.20
2018-11-22T13:10:03.199Z,52.30
2018-11-22T13:12:59.258Z,52.40
2018-11-22T13:15:57.536Z,52.40
2018-11-22T13:18:59.244Z,52.30
2018-11-22T13:21:49.903Z,52.50
2018-11-22T13:24:45.990Z,52.50
2018-11-22T13:27:41.696Z,52.90
2018-11-22T13:30:37.600Z,52.90
2018-11-22T13:33:33.206Z,52.20
2018-11-22T13:36:28.494Z,52.90
2018-11-22T13:39:23.827Z,53.30
2018-11-22T13:42:19.591Z,53.60
2018-11-22T13:45:17.759Z,54.20
2018-11-22T13:48:26.356Z,52.30
2018-11-22T13:51:22.243Z,52.60
2018-11-22T13:54:18.513Z,50.10
2018-11-22T13:57:22.762Z,50.50
2018-11-22T14:00:23.996Z,50.50
2018-11-22T14:03:28.845Z,50.70
2018-11-22T14:06:32.976Z,51.80
2018-11-22T14:09:36.569Z,51.80
2018-11-22T14:12:45.179Z,52.20
2018-11-22T14:15:46.493Z,52.60
2018-11-22T14:18:42.155Z,52.80
2018-11-22T14:21:41.561Z,52.90
2018-11-22T14:24:36.925Z,53.10
2018-11-22T14:27:32.600Z,53.20
2018-11-22T14:30:30.598Z,54.00
2018-11-22T14:33:34.250Z,53.60
2018-11-22T14:36:31.093Z,52.90
2018-11-22T14:39:27.317Z,53.30
2018-11-22T14:42:35.929Z,53.80
2018-11-22T14:45:32.796Z,53.20
2018-11-22T14:48:29.107Z,54.90
2018-11-22T14:51:31.257Z,54.60
2018-11-22T14:54:28.158Z,54.90
